This demonstration page uses our WeatherBlox Daily Observations layout. Learn more.

39.01783, -85.05884

Hourly Observations for May 26, 2019

Temp ( °F °C ) Dew Point ( °F °C ) Humidity (%) Winds ( mph kmh ) Pressure ( in mb ) Visibility ( mi km ) Precip ( " mm )
1:52 am 01:52 Clear 70 21.1 64 17.8 82 82 SSW 5 7 30 1016 10 16.09344 0 0
2:52 am 02:52 Mostly Clear 71 21.7 64 17.8 79 79 SSW 6 9 30 1016 10 16.09344 0 0
3:52 am 03:52 Partly Cloudy 70 21.1 64 17.8 82 82 SSW 7 11 30 1016 10 16.09344 0 0
4:52 am 04:52 Clear 70 21.1 64 17.8 82 82 SSW 6 9 30 1016 10 16.09344 0 0
5:52 am 05:52 Partly Cloudy 70 21.1 64 17.8 82 82 SSW 7 11 30 1016 10 16.09344 0 0
6:52 am 06:52 Mostly Cloudy 71 21.7 64 17.8 79 79 SW 8 13 30.03 1017 10 16.09344 0 0
7:52 am 07:52 Mostly Cloudy 73 22.8 65 18.3 76 76 SW 7 11 30.03 1017 10 16.09344 0 0
8:52 am 08:52 Mostly Cloudy 76 24.4 65 18.3 69 69 WSW 9 15 30.06 1018 10 16.09344 0 0
9:52 am 09:52 Mostly Cloudy 79 26.1 66 18.9 65 65 SW 8 13 30.03 1017 10 16.09344 0 0
10:52 am 10:52 Mostly Cloudy 81 27.2 68 20 65 65 SSW 8 13 30 1016 10 16.09344 0 0
11:52 am 11:52 Partly Cloudy 84 28.9 67 19.4 57 57 SW 10 17 30 1016 10 16.09344 0 0
12:52 pm 12:52 Mostly Cloudy 85 29.4 65 18.3 51 51 WSW 6 9 30 1016 10 16.09344 0 0
1:52 pm 13:52 Mostly Cloudy 85 29.4 66 18.9 53 53 W 9 15 29.97 1015 10 16.09344 0 0
2:52 pm 14:52 Mostly Cloudy 86 30 66 18.9 51 51 W 10 17 29.97 1015 10 16.09344 0.001 0.001
3:42 pm 15:42 Mostly Cloudy with Thunderstorms 84 28.9 66 18.9 55 55 SW 9 15 29.94 1014 10 16.09344 0 0
3:52 pm 15:52 Mostly Cloudy with Thunderstorms 82 27.8 66 18.9 58 58 SSW 10 17 29.97 1015 10 16.09344 0 0
4:02 pm 16:02 Mostly Cloudy with Light Rain 76 24.4 65 18.3 69 69 S 13 20 29.97 1015 10 16.09344 0.001 0.001
4:13 pm 16:13 Mostly Cloudy with Light Thunderstorms 77 25 67 19.4 71 71 SSW 7 11 30 1016 10 16.09344 0.001 0.001
4:30 pm 16:30 Mostly Cloudy with Heavy Thunderstorms 71 21.7 65 18.3 81 81 SW 22 35 30.03 1017 1.5 2.414016 0.02 0.508
4:38 pm 16:38 Mostly Cloudy with Heavy Thunderstorms 68 20 65 18.3 90 90 SW 15 24 30.03 1017 1 1.609344 0.27 6.858
4:52 pm 16:52 Mostly Cloudy with Light Thunderstorms 69 20.6 65 18.3 87 87 S 9 15 30 1016 7 11.265408 0.34 8.636
4:59 pm 16:59 Cloudy with Light Rain 69 20.6 66 18.9 90 90 S 5 7 30 1016 10 16.09344 0.001 0.001
5:52 pm 17:52 Mostly Cloudy 72 22.2 66 18.9 82 82 SSW 6 9 29.97 1015 10 16.09344 0.001 0.001
6:52 pm 18:52 Mostly Cloudy 73 22.8 65 18.3 76 76 SW 10 17 29.97 1015 10 16.09344 0 0
7:52 pm 19:52 Partly Cloudy 73 22.8 67 19.4 81 81 SW 8 13 29.97 1015 10 16.09344 0 0
8:52 pm 20:52 Partly Cloudy 71 21.7 67 19.4 87 87 WSW 5 7 29.97 1015 10 16.09344 0 0
9:52 pm 21:52 Partly Cloudy 69 20.6 67 19.4 93 93 SW 3 6 30 1016 9 14.484096 0 0
10:24 pm 22:24 Mostly Cloudy 70 21.1 67 19.4 90 90 Calm 30 1016 8 12.874752 0 0
10:39 pm 22:39 Cloudy with Light Rain 70 21.1 67 19.4 90 90 Calm 30.03 1017 8 12.874752 0.001 0.001
10:52 pm 22:52 Cloudy 71 21.7 67 19.4 87 87 W 5 7 30 1016 9 14.484096 0.001 0.001
11:52 pm 23:52 Mostly Cloudy 70 21.1 67 19.4 90 90 WNW 6 9 30 1016 10 16.09344 0.001 0.001

Powered by AerisWeather